sensor_id;sensor_type;location;lat;lon;timestamp;P1;durP1;ratioP1;P2;durP2;ratioP2
67051;SDS011;53957;47.222;18.670;2022-11-15T00:00:02;27.65;;;14.45;;
67051;SDS011;53957;47.222;18.670;2022-11-15T00:03:25;27.00;;;13.02;;
67051;SDS011;53957;47.222;18.670;2022-11-15T00:06:47;33.70;;;14.80;;
67051;SDS011;53957;47.222;18.670;2022-11-15T00:10:09;32.10;;;15.52;;
67051;SDS011;53957;47.222;18.670;2022-11-15T00:13:30;30.23;;;14.45;;
67051;SDS011;53957;47.222;18.670;2022-11-15T00:16:55;34.33;;;14.93;;
67051;SDS011;53957;47.222;18.670;2022-11-15T00:20:17;49.42;;;14.98;;
67051;SDS011;53957;47.222;18.670;2022-11-15T00:23:38;41.50;;;15.05;;
67051;SDS011;53957;47.222;18.670;2022-11-15T05:52:23;17.60;;;12.65;;
67051;SDS011;53957;47.222;18.670;2022-11-15T05:55:49;20.60;;;13.73;;
67051;SDS011;53957;47.222;18.670;2022-11-15T05:59:12;19.48;;;13.05;;
67051;SDS011;53957;47.222;18.670;2022-11-15T06:02:34;20.58;;;12.43;;
67051;SDS011;53957;47.222;18.670;2022-11-15T06:05:56;19.77;;;12.93;;
67051;SDS011;53957;47.222;18.670;2022-11-15T06:09:18;16.77;;;12.63;;
67051;SDS011;53957;47.222;18.670;2022-11-15T06:12:40;25.30;;;15.02;;
67051;SDS011;53957;47.222;18.670;2022-11-15T06:16:05;23.27;;;15.98;;
67051;SDS011;53957;47.222;18.670;2022-11-15T06:19:47;22.50;;;15.27;;
67051;SDS011;53957;47.222;18.670;2022-11-15T06:23:08;24.75;;;14.27;;
67051;SDS011;53957;47.222;18.670;2022-11-15T06:26:30;24.95;;;15.65;;
67051;SDS011;53957;47.222;18.670;2022-11-15T06:29:52;24.80;;;14.52;;
67051;SDS011;53957;47.222;18.670;2022-11-15T06:33:14;21.05;;;12.77;;
67051;SDS011;53957;47.222;18.670;2022-11-15T06:36:40;17.83;;;13.10;;
67051;SDS011;53957;47.222;18.670;2022-11-15T06:40:01;39.03;;;21.45;;
67051;SDS011;53957;47.222;18.670;2022-11-15T06:43:23;19.30;;;12.18;;
67051;SDS011;53957;47.222;18.670;2022-11-15T06:46:44;18.50;;;12.05;;
67051;SDS011;53957;47.222;18.670;2022-11-15T06:50:05;21.05;;;13.60;;
67051;SDS011;53957;47.222;18.670;2022-11-15T06:53:27;17.98;;;12.02;;
67051;SDS011;53957;47.222;18.670;2022-11-15T06:56:50;18.40;;;12.68;;
67051;SDS011;53957;47.222;18.670;2022-11-15T07:00:11;18.48;;;12.15;;
67051;SDS011;53957;47.222;18.670;2022-11-15T07:03:37;21.55;;;13.95;;
67051;SDS011;53957;47.222;18.670;2022-11-15T07:07:00;16.17;;;11.25;;
67051;SDS011;53957;47.222;18.670;2022-11-15T07:10:22;19.37;;;13.35;;
67051;SDS011;53957;47.222;18.670;2022-11-15T07:13:45;21.52;;;13.13;;
67051;SDS011;53957;47.222;18.670;2022-11-15T07:17:06;20.25;;;13.60;;
67051;SDS011;53957;47.222;18.670;2022-11-15T07:20:28;20.55;;;13.40;;
67051;SDS011;53957;47.222;18.670;2022-11-15T07:23:49;21.95;;;14.63;;
67051;SDS011;53957;47.222;18.670;2022-11-15T07:27:10;16.02;;;11.60;;
67051;SDS011;53957;47.222;18.670;2022-11-15T07:30:32;22.05;;;13.75;;
67051;SDS011;53957;47.222;18.670;2022-11-15T07:33:53;24.02;;;14.40;;
67051;SDS011;53957;47.222;18.670;2022-11-15T07:37:15;14.38;;;11.50;;
67051;SDS011;53957;47.222;18.670;2022-11-15T07:40:38;22.98;;;15.40;;
67051;SDS011;53957;47.222;18.670;2022-11-15T07:43:59;19.12;;;11.73;;
67051;SDS011;53957;47.222;18.670;2022-11-15T07:47:21;19.25;;;14.45;;
67051;SDS011;53957;47.222;18.670;2022-11-15T09:08:31;24.27;;;15.07;;
67051;SDS011;53957;47.222;18.670;2022-11-15T09:12:13;22.33;;;15.77;;
67051;SDS011;53957;47.222;18.670;2022-11-15T09:15:35;23.48;;;15.63;;
67051;SDS011;53957;47.222;18.670;2022-11-15T09:18:56;21.65;;;15.23;;
67051;SDS011;53957;47.222;18.670;2022-11-15T09:22:18;25.17;;;16.08;;
67051;SDS011;53957;47.222;18.670;2022-11-15T09:25:58;23.62;;;14.82;;
67051;SDS011;53957;47.222;18.670;2022-11-15T09:29:22;24.67;;;17.55;;
67051;SDS011;53957;47.222;18.670;2022-11-15T09:32:43;21.12;;;14.63;;
67051;SDS011;53957;47.222;18.670;2022-11-15T09:36:07;34.88;;;21.10;;
67051;SDS011;53957;47.222;18.670;2022-11-15T09:39:30;28.45;;;18.37;;
67051;SDS011;53957;47.222;18.670;2022-11-15T09:49:43;25.17;;;16.85;;
67051;SDS011;53957;47.222;18.670;2022-11-15T09:52:49;27.58;;;17.15;;
67051;SDS011;53957;47.222;18.670;2022-11-15T09:55:59;23.40;;;15.20;;
67051;SDS011;53957;47.222;18.670;2022-11-15T10:05:46;25.00;;;16.40;;
67051;SDS011;53957;47.222;18.670;2022-11-15T10:09:05;25.90;;;16.67;;
67051;SDS011;53957;47.222;18.670;2022-11-15T10:12:15;25.58;;;17.95;;
67051;SDS011;53957;47.222;18.670;2022-11-15T10:15:19;23.33;;;15.13;;
67051;SDS011;53957;47.222;18.670;2022-11-15T10:25:21;23.58;;;15.90;;
67051;SDS011;53957;47.222;18.670;2022-11-15T10:28:28;26.12;;;15.57;;
67051;SDS011;53957;47.222;18.670;2022-11-15T10:31:33;24.67;;;16.77;;
67051;SDS011;53957;47.222;18.670;2022-11-15T10:34:36;26.35;;;17.62;;
67051;SDS011;53957;47.222;18.670;2022-11-15T10:37:39;26.23;;;16.92;;
67051;SDS011;53957;47.222;18.670;2022-11-15T10:40:44;26.48;;;17.05;;
67051;SDS011;53957;47.222;18.670;2022-11-15T10:47:28;24.80;;;16.73;;
67051;SDS011;53957;47.222;18.670;2022-11-15T10:50:45;24.98;;;16.95;;
67051;SDS011;53957;47.222;18.670;2022-11-15T10:53:50;24.50;;;16.12;;
67051;SDS011;53957;47.222;18.670;2022-11-15T10:56:55;26.17;;;16.48;;
67051;SDS011;53957;47.222;18.670;2022-11-15T11:00:03;25.17;;;16.52;;
67051;SDS011;53957;47.222;18.670;2022-11-15T11:03:29;26.37;;;17.05;;
67051;SDS011;53957;47.222;18.670;2022-11-15T11:06:47;27.42;;;18.00;;
67051;SDS011;53957;47.222;18.670;2022-11-15T11:09:59;25.48;;;17.10;;
67051;SDS011;53957;47.222;18.670;2022-11-15T11:13:13;27.85;;;16.62;;
67051;SDS011;53957;47.222;18.670;2022-11-15T11:16:31;26.65;;;17.27;;
67051;SDS011;53957;47.222;18.670;2022-11-15T11:46:30;24.87;;;15.77;;
67051;SDS011;53957;47.222;18.670;2022-11-15T11:52:57;17.48;;;12.70;;
67051;SDS011;53957;47.222;18.670;2022-11-15T11:56:17;18.05;;;13.15;;
67051;SDS011;53957;47.222;18.670;2022-11-15T12:03:23;22.83;;;12.98;;
67051;SDS011;53957;47.222;18.670;2022-11-15T12:06:51;20.12;;;12.63;;
67051;SDS011;53957;47.222;18.670;2022-11-15T12:10:03;17.30;;;11.90;;
67051;SDS011;53957;47.222;18.670;2022-11-15T12:13:18;17.80;;;12.80;;
67051;SDS011;53957;47.222;18.670;2022-11-15T12:16:30;19.75;;;13.98;;
67051;SDS011;53957;47.222;18.670;2022-11-15T12:19:34;20.17;;;13.32;;
67051;SDS011;53957;47.222;18.670;2022-11-15T12:28:59;26.12;;;18.50;;
67051;SDS011;53957;47.222;18.670;2022-11-15T12:32:54;25.60;;;15.88;;
67051;SDS011;53957;47.222;18.670;2022-11-15T12:35:38;31.02;;;16.83;;
67051;SDS011;53957;47.222;18.670;2022-11-15T12:45:24;27.73;;;16.83;;
67051;SDS011;53957;47.222;18.670;2022-11-15T12:54:49;28.98;;;17.08;;
67051;SDS011;53957;47.222;18.670;2022-11-15T12:57:53;28.85;;;17.52;;
67051;SDS011;53957;47.222;18.670;2022-11-15T13:00:57;27.87;;;17.55;;
67051;SDS011;53957;47.222;18.670;2022-11-15T13:10:44;28.10;;;18.45;;
67051;SDS011;53957;47.222;18.670;2022-11-15T13:13:47;23.55;;;17.00;;
67051;SDS011;53957;47.222;18.670;2022-11-15T13:16:56;26.02;;;16.25;;
67051;SDS011;53957;47.222;18.670;2022-11-15T13:23:13;27.85;;;16.65;;
67051;SDS011;53957;47.222;18.670;2022-11-15T13:26:18;21.45;;;15.68;;
67051;SDS011;53957;47.222;18.670;2022-11-15T13:29:23;36.33;;;16.02;;
67051;SDS011;53957;47.222;18.670;2022-11-15T13:32:26;26.62;;;15.77;;
67051;SDS011;53957;47.222;18.670;2022-11-15T13:35:29;30.25;;;18.10;;
67051;SDS011;53957;47.222;18.670;2022-11-15T13:38:37;22.20;;;14.85;;
67051;SDS011;53957;47.222;18.670;2022-11-15T13:41:48;26.33;;;16.73;;
67051;SDS011;53957;47.222;18.670;2022-11-15T13:45:02;27.95;;;18.33;;
67051;SDS011;53957;47.222;18.670;2022-11-15T13:48:07;31.60;;;19.62;;
67051;SDS011;53957;47.222;18.670;2022-11-15T13:54:21;32.72;;;20.90;;
67051;SDS011;53957;47.222;18.670;2022-11-15T14:01:03;32.70;;;20.08;;
67051;SDS011;53957;47.222;18.670;2022-11-15T14:04:10;30.48;;;18.02;;
67051;SDS011;53957;47.222;18.670;2022-11-15T14:07:16;32.60;;;20.52;;
67051;SDS011;53957;47.222;18.670;2022-11-15T14:10:32;37.08;;;22.30;;
67051;SDS011;53957;47.222;18.670;2022-11-15T14:13:36;42.13;;;21.45;;
67051;SDS011;53957;47.222;18.670;2022-11-15T14:16:42;32.85;;;20.95;;
67051;SDS011;53957;47.222;18.670;2022-11-15T14:19:46;33.53;;;21.75;;
67051;SDS011;53957;47.222;18.670;2022-11-15T14:22:53;36.72;;;23.17;;
67051;SDS011;53957;47.222;18.670;2022-11-15T14:25:57;37.92;;;22.98;;
67051;SDS011;53957;47.222;18.670;2022-11-15T14:32:28;34.15;;;22.40;;
67051;SDS011;53957;47.222;18.670;2022-11-15T14:35:39;43.33;;;24.40;;
67051;SDS011;53957;47.222;18.670;2022-11-15T14:38:42;42.50;;;25.12;;
67051;SDS011;53957;47.222;18.670;2022-11-15T14:41:45;44.33;;;26.05;;
67051;SDS011;53957;47.222;18.670;2022-11-15T14:44:48;50.45;;;26.35;;
67051;SDS011;53957;47.222;18.670;2022-11-15T14:47:51;38.67;;;24.50;;
67051;SDS011;53957;47.222;18.670;2022-11-15T14:50:55;43.95;;;25.95;;
67051;SDS011;53957;47.222;18.670;2022-11-15T14:53:59;51.80;;;27.15;;
67051;SDS011;53957;47.222;18.670;2022-11-15T14:57:02;51.90;;;27.17;;
67051;SDS011;53957;47.222;18.670;2022-11-15T15:00:07;52.47;;;28.08;;
67051;SDS011;53957;47.222;18.670;2022-11-15T15:03:13;52.30;;;29.17;;
67051;SDS011;53957;47.222;18.670;2022-11-15T15:06:16;52.28;;;28.40;;
67051;SDS011;53957;47.222;18.670;2022-11-15T15:09:19;52.50;;;28.98;;
67051;SDS011;53957;47.222;18.670;2022-11-15T15:12:23;49.30;;;27.50;;
67051;SDS011;53957;47.222;18.670;2022-11-15T15:15:29;49.60;;;28.33;;
67051;SDS011;53957;47.222;18.670;2022-11-15T15:18:38;48.13;;;27.58;;
67051;SDS011;53957;47.222;18.670;2022-11-15T15:21:40;57.47;;;30.15;;
67051;SDS011;53957;47.222;18.670;2022-11-15T15:24:45;54.35;;;30.75;;
67051;SDS011;53957;47.222;18.670;2022-11-15T15:27:48;50.55;;;27.50;;
67051;SDS011;53957;47.222;18.670;2022-11-15T15:30:51;49.70;;;27.17;;
67051;SDS011;53957;47.222;18.670;2022-11-15T15:33:55;56.25;;;27.90;;
67051;SDS011;53957;47.222;18.670;2022-11-15T15:40:28;64.47;;;31.02;;
67051;SDS011;53957;47.222;18.670;2022-11-15T15:43:32;52.92;;;30.33;;
67051;SDS011;53957;47.222;18.670;2022-11-15T15:46:35;52.92;;;27.58;;
67051;SDS011;53957;47.222;18.670;2022-11-15T15:49:38;58.65;;;29.23;;
67051;SDS011;53957;47.222;18.670;2022-11-15T15:52:41;53.25;;;28.38;;
67051;SDS011;53957;47.222;18.670;2022-11-15T15:55:44;59.63;;;29.90;;
67051;SDS011;53957;47.222;18.670;2022-11-15T15:58:47;58.30;;;29.80;;
67051;SDS011;53957;47.222;18.670;2022-11-15T16:01:50;60.70;;;31.08;;
67051;SDS011;53957;47.222;18.670;2022-11-15T16:04:53;58.08;;;32.55;;
67051;SDS011;53957;47.222;18.670;2022-11-15T16:07:55;60.12;;;30.58;;
67051;SDS011;53957;47.222;18.670;2022-11-15T16:11:00;57.95;;;31.48;;
67051;SDS011;53957;47.222;18.670;2022-11-15T16:14:02;57.65;;;29.00;;
67051;SDS011;53957;47.222;18.670;2022-11-15T16:17:05;58.22;;;29.33;;
67051;SDS011;53957;47.222;18.670;2022-11-15T16:20:32;54.60;;;30.45;;
67051;SDS011;53957;47.222;18.670;2022-11-15T16:23:35;62.83;;;30.35;;
67051;SDS011;53957;47.222;18.670;2022-11-15T16:26:38;61.55;;;29.87;;
67051;SDS011;53957;47.222;18.670;2022-11-15T16:29:41;61.70;;;29.52;;
67051;SDS011;53957;47.222;18.670;2022-11-15T16:32:44;91.05;;;45.90;;
67051;SDS011;53957;47.222;18.670;2022-11-15T16:35:47;87.78;;;41.00;;
67051;SDS011;53957;47.222;18.670;2022-11-15T16:38:50;100.65;;;47.80;;
67051;SDS011;53957;47.222;18.670;2022-11-15T16:41:53;78.05;;;33.95;;
67051;SDS011;53957;47.222;18.670;2022-11-15T16:44:56;70.18;;;32.83;;
67051;SDS011;53957;47.222;18.670;2022-11-15T16:47:59;76.97;;;32.75;;
67051;SDS011;53957;47.222;18.670;2022-11-15T16:51:04;77.90;;;34.03;;
67051;SDS011;53957;47.222;18.670;2022-11-15T16:54:07;76.35;;;30.92;;
67051;SDS011;53957;47.222;18.670;2022-11-15T16:57:10;86.60;;;35.83;;
67051;SDS011;53957;47.222;18.670;2022-11-15T17:00:14;79.03;;;34.70;;
67051;SDS011;53957;47.222;18.670;2022-11-15T17:03:18;77.07;;;33.65;;
67051;SDS011;53957;47.222;18.670;2022-11-15T17:06:21;95.60;;;37.08;;
67051;SDS011;53957;47.222;18.670;2022-11-15T17:09:25;78.00;;;34.13;;
67051;SDS011;53957;47.222;18.670;2022-11-15T17:12:28;77.90;;;34.80;;
67051;SDS011;53957;47.222;18.670;2022-11-15T17:15:32;82.03;;;34.30;;
67051;SDS011;53957;47.222;18.670;2022-11-15T17:18:35;83.35;;;33.75;;
67051;SDS011;53957;47.222;18.670;2022-11-15T17:21:38;87.30;;;34.65;;
67051;SDS011;53957;47.222;18.670;2022-11-15T17:24:41;73.82;;;32.95;;
67051;SDS011;53957;47.222;18.670;2022-11-15T17:27:44;79.15;;;31.98;;
67051;SDS011;53957;47.222;18.670;2022-11-15T17:30:51;79.85;;;32.42;;
67051;SDS011;53957;47.222;18.670;2022-11-15T17:33:55;77.50;;;31.60;;
67051;SDS011;53957;47.222;18.670;2022-11-15T17:36:58;84.43;;;32.90;;
67051;SDS011;53957;47.222;18.670;2022-11-15T17:40:01;68.35;;;33.53;;
67051;SDS011;53957;47.222;18.670;2022-11-15T17:43:04;83.43;;;36.08;;
67051;SDS011;53957;47.222;18.670;2022-11-15T17:46:11;88.15;;;33.33;;
67051;SDS011;53957;47.222;18.670;2022-11-15T17:49:21;165.62;;;64.70;;
67051;SDS011;53957;47.222;18.670;2022-11-15T17:52:24;132.30;;;63.13;;
67051;SDS011;53957;47.222;18.670;2022-11-15T17:55:27;94.90;;;39.65;;
67051;SDS011;53957;47.222;18.670;2022-11-15T17:58:30;188.90;;;65.00;;
67051;SDS011;53957;47.222;18.670;2022-11-15T18:01:35;97.37;;;39.05;;
67051;SDS011;53957;47.222;18.670;2022-11-15T18:04:39;167.40;;;64.37;;
67051;SDS011;53957;47.222;18.670;2022-11-15T18:07:42;75.62;;;37.95;;
67051;SDS011;53957;47.222;18.670;2022-11-15T18:10:45;80.07;;;35.05;;
67051;SDS011;53957;47.222;18.670;2022-11-15T18:13:49;70.87;;;32.17;;
67051;SDS011;53957;47.222;18.670;2022-11-15T18:16:54;84.15;;;35.33;;
67051;SDS011;53957;47.222;18.670;2022-11-15T18:19:57;76.18;;;34.72;;
67051;SDS011;53957;47.222;18.670;2022-11-15T18:23:00;86.05;;;35.70;;
67051;SDS011;53957;47.222;18.670;2022-11-15T18:26:03;88.80;;;37.40;;
67051;SDS011;53957;47.222;18.670;2022-11-15T18:29:07;94.30;;;33.33;;
67051;SDS011;53957;47.222;18.670;2022-11-15T18:32:11;79.70;;;36.47;;
67051;SDS011;53957;47.222;18.670;2022-11-15T18:35:16;85.85;;;35.00;;
67051;SDS011;53957;47.222;18.670;2022-11-15T18:38:19;85.82;;;35.33;;
67051;SDS011;53957;47.222;18.670;2022-11-15T18:41:22;95.05;;;35.60;;
67051;SDS011;53957;47.222;18.670;2022-11-15T18:44:32;81.90;;;35.85;;
67051;SDS011;53957;47.222;18.670;2022-11-15T18:47:35;89.65;;;35.53;;
67051;SDS011;53957;47.222;18.670;2022-11-15T18:50:40;82.65;;;36.22;;
67051;SDS011;53957;47.222;18.670;2022-11-15T18:53:43;81.07;;;35.00;;
67051;SDS011;53957;47.222;18.670;2022-11-15T18:56:46;86.78;;;34.78;;
67051;SDS011;53957;47.222;18.670;2022-11-15T18:59:49;54.67;;;29.15;;
67051;SDS011;53957;47.222;18.670;2022-11-15T19:02:53;74.45;;;30.58;;
67051;SDS011;53957;47.222;18.670;2022-11-15T19:05:59;65.12;;;31.77;;
67051;SDS011;53957;47.222;18.670;2022-11-15T19:09:06;92.12;;;33.13;;
67051;SDS011;53957;47.222;18.670;2022-11-15T19:12:10;80.10;;;31.30;;
67051;SDS011;53957;47.222;18.670;2022-11-15T19:15:13;73.25;;;31.42;;
67051;SDS011;53957;47.222;18.670;2022-11-15T19:18:16;69.87;;;30.35;;
67051;SDS011;53957;47.222;18.670;2022-11-15T19:21:18;77.03;;;31.95;;
67051;SDS011;53957;47.222;18.670;2022-11-15T19:24:22;68.43;;;31.50;;
67051;SDS011;53957;47.222;18.670;2022-11-15T19:27:24;80.38;;;34.50;;
67051;SDS011;53957;47.222;18.670;2022-11-15T19:30:29;73.12;;;31.52;;
67051;SDS011;53957;47.222;18.670;2022-11-15T19:33:33;88.30;;;36.22;;
67051;SDS011;53957;47.222;18.670;2022-11-15T19:36:38;64.37;;;29.90;;
67051;SDS011;53957;47.222;18.670;2022-11-15T19:39:42;65.72;;;33.08;;
67051;SDS011;53957;47.222;18.670;2022-11-15T19:42:45;78.15;;;31.25;;
67051;SDS011;53957;47.222;18.670;2022-11-15T19:45:51;85.72;;;33.00;;
67051;SDS011;53957;47.222;18.670;2022-11-15T19:49:02;68.78;;;30.55;;
67051;SDS011;53957;47.222;18.670;2022-11-15T19:52:05;73.60;;;32.42;;
67051;SDS011;53957;47.222;18.670;2022-11-15T19:55:08;73.75;;;33.35;;
67051;SDS011;53957;47.222;18.670;2022-11-15T19:58:11;70.32;;;31.15;;
67051;SDS011;53957;47.222;18.670;2022-11-15T20:01:18;79.95;;;31.35;;
67051;SDS011;53957;47.222;18.670;2022-11-15T20:04:41;71.50;;;31.42;;
67051;SDS011;53957;47.222;18.670;2022-11-15T20:07:46;85.30;;;33.65;;
67051;SDS011;53957;47.222;18.670;2022-11-15T20:10:53;93.25;;;32.97;;
67051;SDS011;53957;47.222;18.670;2022-11-15T20:13:56;75.47;;;31.20;;
67051;SDS011;53957;47.222;18.670;2022-11-15T20:17:00;69.00;;;29.42;;
